Flight Track Log - Related Links

Times and Time Zones

All times are in EDT time to prevent confusion due to time zone crossing. See the LXJ437 flight status page for this flight to view local times or setup timezone preferences in your user account.

Time Position Orientation Groundspeed Altitude Reporting Facility
EDT Latitude Longitude Course Direction KTS MPH feet Rate Location/Type
Sun 10:26:07 AM 36.3528 -105.7319 144° Southeast 314 361 13,100  Level Albuquerque Center
Sun 10:27:08 AM 36.2736 -105.6597 144° Southeast 348 400 15,900 2,341 Climbing Albuquerque Center
Sun 10:28:10 AM 36.1853 -105.5836 145° Southeast 377 434 17,900 3,242 Climbing Albuquerque Center
Sun 10:29:12 AM 36.0831 -105.4953 145° Southeast 388 447 22,600 3,707 Climbing Albuquerque Center
Sun 10:30:13 AM 35.9919 -105.4183 146° Southeast 392 451 25,500 2,341 Climbing Albuquerque Center
Sun 10:31:15 AM 35.8939 -105.3350 145° Southeast 414 476 27,400 1,220 Climbing Albuquerque Center
Sun 10:32:16 AM 35.7861 -105.2442 146° Southeast 451 519 28,000 927 Climbing Albuquerque Center
Sun 10:33:18 AM 35.6792 -105.1525 145° Southeast 464 534 29,300 1,790 Climbing Albuquerque Center
Sun 10:34:20 AM 35.6075 -104.9806 117° Southeast 479 551 31,700 1,805 Climbing Albuquerque Center
Sun 10:35:21 AM 35.5617 -104.8211 109° East 488 562 33,000 634 Climbing Albuquerque Center
Sun 10:36:23 AM 35.5094 -104.6514 111° Southeast 518 596 33,000 97 Level Albuquerque Center
Sun 10:37:25 AM 35.4583 -104.4831 110° East 522 601 33,200 823 Climbing Albuquerque Center
Sun 10:38:27 AM 35.4075 -104.3156 110° East 518 596 34,700 878 Climbing Albuquerque Center
Sun 10:39:28 AM 35.3542 -104.1375 110° East 532 612 35,000 146 Climbing Albuquerque Center
Sun 10:40:30 AM 35.3003 -103.9683 111° Southeast 536 617 35,000  Level Albuquerque Center
Sun 10:41:32 AM 35.2439 -103.7906 111° Southeast 533 613 35,000  Level Albuquerque Center
Sun 10:42:33 AM 35.1861 -103.6222 113° Southeast 532 612 35,000  Level Albuquerque Center
Sun 10:43:35 AM 35.0886 -103.4875 131° Southeast 523 602 35,000  Level Albuquerque Center
Sun 10:44:37 AM 34.9819 -103.3658 137° Southeast 519 597 35,000 -293 Level Albuquerque Center
Sun 10:45:38 AM 34.8767 -103.2425 136° Southeast 519 597 34,400 -732 Descending Albuquerque Center
Sun 10:46:40 AM 34.7692 -103.1294 139° Southeast 510 587 33,500 -677 Descending Albuquerque Center
Sun 10:47:42 AM 34.6375 -103.0744 161° South 493 567 33,000 -244 Descending Albuquerque Center
Sun 10:48:43 AM 34.4833 -103.0169 163° South 489 563 33,000  Level Albuquerque Center
Sun 10:49:45 AM 34.3683 -102.9722 162° South 497 572 33,000  Level Albuquerque Center
Sun 10:50:47 AM 34.2167 -102.9139 162° South 496 571 33,000  Level Albuquerque Center
Sun 10:51:48 AM 34.1039 -102.8708 162° South 489 563 33,000  Level Albuquerque Center
Sun 10:52:50 AM 33.9739 -102.8203 162° South 489 563 33,000  Level Albuquerque Center
Sun 10:53:52 AM 33.8164 -102.7600 162° South 493 567 33,000 -677 Level Albuquerque Center
Sun 10:54:54 AM 33.6864 -102.7089 162° South 493 567 31,600 -1,761 Descending Albuquerque Center
Sun 10:55:24 AM 33.6114 -102.6858 166° South 497 572 30,300 -2,400 Descending Fort Worth Center
Sun 10:56:24 AM 33.4964 -102.6417 162° South 492 566 28,000 -2,400 Descending Fort Worth Center
Sun 10:57:24 AM 33.3567 -102.5886 162° South 484 557 25,500 -2,050 Descending Fort Worth Center
Sun 10:58:24 AM 33.2458 -102.5472 163° South 475 547 23,900 -1,900 Descending Fort Worth Center
Sun 10:59:24 AM 33.1119 -102.4997 163° South 458 527 21,700 -2,050 Descending Fort Worth Center
Sun 11:00:24 AM 33.0117 -102.4569 160° South 441 507 19,800 -1,950 Descending Fort Worth Center
Sun 11:01:24 AM 32.8961 -102.4183 164° South 429 494 17,800 -1,983 Descending Fort Worth Center
Sun 11:02:25 AM 32.7894 -102.3778 162° South 424 488 15,800 -1,750 Descending Fort Worth Center
Sun 11:03:24 AM 32.6864 -102.3400 163° South 401 461 14,300 -1,000 Descending Fort Worth Center
Sun 11:04:25 AM 32.5856 -102.3047 164° South 388 447 13,800 -1,200 Descending Fort Worth Center
Sun 11:05:24 AM 32.4950 -102.2728 163° South 366 421 11,900 -2,000 Descending Fort Worth Center
Sun 11:06:25 AM 32.4117 -102.2167 150° Southeast 340 391 9,800 -2,132 Descending Fort Worth Center
Sun 11:07:25 AM 32.3450 -102.1542 142° Southeast 318 366 7,600 -2,000 Descending Fort Worth Center
Sun 11:08:25 AM 32.2806 -102.0942 142° Southeast 303 349 5,800 -1,311 Descending Fort Worth Center
Sun 11:09:24 AM 32.2239 -102.0469 145° Southeast 279 321 5,000 -400 Descending Fort Worth Center
Sun 11:10:25 AM 32.1619 -102.0808 205° Southwest 220 253 5,000 -298 Level Fort Worth Center
Sun 11:11:25 AM 32.1086 -102.1122 206° Southwest 220 253 4,400 -353 Descending Fort Worth Center
Sun 11:12:24 AM 32.0697 -102.1494 219° Southwest 202 232 4,300 -350 Descending Fort Worth Center
Sun 11:13:25 AM 32.0381 -102.1578 193° South 177 204 3,700 -650 Descending Fort Worth Center
Sun 11:14:24 AM 32.0247 -102.1275 117° Southeast 86 99 3,000 -712 Descending Fort Worth Center

Login

Don't have an account? Register now (free) for customized features, flight alerts, and more!